Time;durP1;ratioP1;P1;durP2;ratioP2;P2;SDS_P1;SDS_P2;PMS_P1;PMS_P2;Temp;Humidity;BMP_temperature;BMP_pressure;BME280_temperature;BME280_humidity;BME280_pressure;Samples;Min_cycle;Max_cycle;Signal;HPM_P1;HPM_P2
2023/08/09 00:01:32;;;;;;;12.18;5.50;;;;;;;;;;6244592;23;20451;-80
2023/08/09 00:03:57;;;;;;;12.95;5.68;;;;;;;;;;6244452;23;20011;-79
2023/08/09 00:06:22;;;;;;;11.60;5.70;;;;;;;;;;6244472;23;20007;-79
2023/08/09 00:08:48;;;;;;;13.35;6.07;;;;;;;;;;6192566;23;20008;-80
2023/08/09 00:11:13;;;;;;;9.10;5.30;;;;;;;;;;6244280;23;20019;-79
2023/08/09 00:13:39;;;;;;;13.85;5.53;;;;;;;;;;6217552;23;20347;-80
2023/08/09 00:16:04;;;;;;;13.07;6.35;;;;;;;;;;6244177;23;20402;-79
2023/08/09 00:18:30;;;;;;;12.00;5.97;;;;;;;;;;6218166;23;20011;-80
2023/08/09 00:20:55;;;;;;;13.05;5.90;;;;;;;;;;6244953;23;20004;-79
2023/08/09 00:23:21;;;;;;;13.45;5.97;;;;;;;;;;6244879;23;20008;-80
2023/08/09 00:25:46;;;;;;;14.10;5.63;;;;;;;;;;6244342;23;20036;-79
2023/08/09 00:28:12;;;;;;;14.57;6.10;;;;;;;;;;6243549;23;20015;-78
2023/08/09 00:30:37;;;;;;;16.73;5.63;;;;;;;;;;6244084;23;20000;-78
2023/08/09 00:33:03;;;;;;;11.02;6.13;;;;;;;;;;6244389;23;20004;-79
2023/08/09 00:35:30;;;;;;;15.93;5.53;;;;;;;;;;6244698;23;19996;-77
2023/08/09 00:37:55;;;;;;;12.23;6.18;;;;;;;;;;6245795;23;20000;-79
2023/08/09 00:40:21;;;;;;;9.93;5.78;;;;;;;;;;6244179;23;20095;-79
2023/08/09 00:42:46;;;;;;;14.50;6.68;;;;;;;;;;6243812;23;20035;-79
2023/08/09 00:45:12;;;;;;;11.50;5.65;;;;;;;;;;6217736;23;20011;-78
2023/08/09 00:47:37;;;;;;;12.90;6.00;;;;;;;;;;6217365;23;19996;-79
2023/08/09 00:50:03;;;;;;;11.20;5.95;;;;;;;;;;6192450;23;20090;-78
2023/08/09 00:52:28;;;;;;;14.90;5.70;;;;;;;;;;6217397;23;20004;-79
2023/08/09 00:54:54;;;;;;;14.95;6.80;;;;;;;;;;6217354;23;20010;-79
2023/08/09 00:57:19;;;;;;;14.68;6.32;;;;;;;;;;6217825;23;20031;-79
2023/08/09 00:59:45;;;;;;;13.98;6.47;;;;;;;;;;6192356;23;20004;-79
2023/08/09 01:02:10;;;;;;;17.45;5.70;;;;;;;;;;6244025;23;20003;-79
2023/08/09 01:04:36;;;;;;;17.75;6.53;;;;;;;;;;6217549;23;20091;-78
2023/08/09 01:07:04;;;;;;;11.32;5.55;;;;;;;;;;6192284;23;20000;-79
2023/08/09 01:09:42;;;;;;;12.82;6.38;;;;;;;;;;6217077;23;20339;-79
2023/08/09 01:12:12;;;;;;;12.20;6.32;;;;;;;;;;6194223;23;20008;-79
2023/08/09 01:14:41;;;;;;;18.73;6.90;;;;;;;;;;6192556;23;20007;-79
2023/08/09 01:17:08;;;;;;;14.70;5.80;;;;;;;;;;6218063;23;20079;-79
2023/08/09 01:19:33;;;;;;;15.68;6.72;;;;;;;;;;6192513;23;20748;-79
2023/08/09 01:22:04;;;;;;;15.35;6.13;;;;;;;;;;6244012;23;20071;-79
2023/08/09 01:24:29;;;;;;;19.13;6.30;;;;;;;;;;6193854;23;20339;-79
2023/08/09 01:26:55;;;;;;;15.18;6.70;;;;;;;;;;6212363;23;20042;-79
2023/08/09 01:29:20;;;;;;;30.65;7.63;;;;;;;;;;6244393;22;20035;-79
2023/08/09 01:31:46;;;;;;;13.05;7.07;;;;;;;;;;6242931;23;20000;-79
2023/08/09 01:34:11;;;;;;;16.02;7.18;;;;;;;;;;6244096;23;20499;-79
2023/08/09 01:36:37;;;;;;;17.15;6.90;;;;;;;;;;6242905;23;20015;-78
2023/08/09 01:39:06;;;;;;;18.45;6.65;;;;;;;;;;6247554;22;20045;-77
2023/08/09 01:41:32;;;;;;;16.27;6.27;;;;;;;;;;6221457;23;20001;-77
2023/08/09 01:43:58;;;;;;;19.38;6.47;;;;;;;;;;6221302;23;20067;-78
2023/08/09 01:46:24;;;;;;;10.65;5.90;;;;;;;;;;6252016;23;20012;-77
2023/08/09 01:48:49;;;;;;;15.25;5.55;;;;;;;;;;6245451;23;20000;-78
2023/08/09 01:51:15;;;;;;;11.18;5.03;;;;;;;;;;6219982;23;20046;-78
2023/08/09 01:53:40;;;;;;;8.82;4.88;;;;;;;;;;6199341;23;20007;-78
2023/08/09 01:56:05;;;;;;;14.13;5.28;;;;;;;;;;6245174;23;20000;-79
2023/08/09 01:58:31;;;;;;;13.10;4.85;;;;;;;;;;6219703;23;20004;-79
2023/08/09 02:00:57;;;;;;;10.45;4.85;;;;;;;;;;6221185;23;20079;-79
2023/08/09 02:03:22;;;;;;;11.20;5.25;;;;;;;;;;6220552;23;19996;-79
2023/08/09 02:05:48;;;;;;;11.20;4.68;;;;;;;;;;6246820;23;20018;-79
2023/08/09 02:08:13;;;;;;;10.55;4.50;;;;;;;;;;6251528;23;20011;-79
2023/08/09 02:10:39;;;;;;;12.38;4.90;;;;;;;;;;6244770;23;20007;-79
2023/08/09 02:13:05;;;;;;;11.15;4.90;;;;;;;;;;6244945;23;20062;-79
2023/08/09 02:15:30;;;;;;;8.25;4.38;;;;;;;;;;6248103;23;20012;-78
2023/08/09 02:17:58;;;;;;;8.02;4.78;;;;;;;;;;6253747;23;19999;-79
2023/08/09 02:20:23;;;;;;;12.98;4.60;;;;;;;;;;6255772;22;20152;-79
2023/08/09 02:22:49;;;;;;;8.20;4.93;;;;;;;;;;6229881;23;20004;-79
2023/08/09 02:25:14;;;;;;;11.82;5.03;;;;;;;;;;6264021;22;20023;-78
2023/08/09 02:27:39;;;;;;;7.65;4.50;;;;;;;;;;6241234;23;20004;-79
2023/08/09 02:30:09;;;;;;;11.48;4.65;;;;;;;;;;6263079;23;20027;-79
2023/08/09 02:32:36;;;;;;;10.25;4.72;;;;;;;;;;6233020;23;20053;-79
2023/08/09 02:35:03;;;;;;;12.05;4.30;;;;;;;;;;6220671;23;20004;-79
2023/08/09 02:37:29;;;;;;;9.75;4.53;;;;;;;;;;6221631;23;20000;-79
2023/08/09 02:39:55;;;;;;;12.88;4.55;;;;;;;;;;6226648;23;20340;-78
2023/08/09 02:42:20;;;;;;;13.13;4.47;;;;;;;;;;6205856;23;20414;-79
2023/08/09 02:44:45;;;;;;;6.60;4.45;;;;;;;;;;6249068;23;20011;-79
2023/08/09 02:47:11;;;;;;;12.55;4.85;;;;;;;;;;6248938;23;20022;-79
2023/08/09 02:49:36;;;;;;;8.18;4.97;;;;;;;;;;6218757;23;20019;-79
2023/08/09 02:52:02;;;;;;;7.63;4.82;;;;;;;;;;6245284;23;20000;-79
2023/08/09 02:54:27;;;;;;;10.48;4.45;;;;;;;;;;6245012;23;20008;-79
2023/08/09 02:56:53;;;;;;;7.35;5.00;;;;;;;;;;6245598;23;20004;-79
2023/08/09 02:59:18;;;;;;;8.55;4.55;;;;;;;;;;6194324;23;20090;-79
2023/08/09 03:01:44;;;;;;;6.57;4.38;;;;;;;;;;6218379;23;20084;-79
2023/08/09 03:04:09;;;;;;;8.15;4.30;;;;;;;;;;6218660;23;20008;-79
2023/08/09 03:06:35;;;;;;;10.05;5.25;;;;;;;;;;6244907;23;20432;-80
2023/08/09 03:09:02;;;;;;;11.20;5.63;;;;;;;;;;6244571;23;20079;-79
2023/08/09 03:11:27;;;;;;;7.03;4.82;;;;;;;;;;6194456;23;20106;-79
2023/08/09 03:13:53;;;;;;;8.95;4.40;;;;;;;;;;6218019;23;20424;-79
2023/08/09 03:16:18;;;;;;;8.85;4.38;;;;;;;;;;6193609;23;20067;-79
2023/08/09 03:18:44;;;;;;;6.90;4.30;;;;;;;;;;6193201;23;20008;-79
2023/08/09 03:21:09;;;;;;;6.85;4.30;;;;;;;;;;6193343;23;20486;-79
2023/08/09 03:23:35;;;;;;;12.00;4.32;;;;;;;;;;6192973;23;20091;-79
2023/08/09 03:26:01;;;;;;;14.77;4.45;;;;;;;;;;6202750;23;20015;-79
2023/08/09 03:28:27;;;;;;;10.07;5.38;;;;;;;;;;6218558;23;20411;-79
2023/08/09 03:30:53;;;;;;;9.45;4.88;;;;;;;;;;6243215;23;20000;-79
2023/08/09 03:33:18;;;;;;;8.43;5.00;;;;;;;;;;6243367;23;20011;-79
2023/08/09 03:35:44;;;;;;;9.93;5.40;;;;;;;;;;6193574;23;20091;-79
2023/08/09 03:38:10;;;;;;;6.93;4.57;;;;;;;;;;6217326;23;20054;-79
2023/08/09 03:40:35;;;;;;;10.02;4.45;;;;;;;;;;6243994;23;20011;-79
2023/08/09 03:43:01;;;;;;;7.68;4.40;;;;;;;;;;6218200;23;20130;-79
2023/08/09 03:45:26;;;;;;;11.30;4.93;;;;;;;;;;6243525;23;20008;-79
2023/08/09 03:47:52;;;;;;;7.38;4.32;;;;;;;;;;6244561;22;20000;-79
2023/08/09 03:50:18;;;;;;;9.48;4.18;;;;;;;;;;6244827;22;20000;-79
2023/08/09 03:52:43;;;;;;;8.70;4.38;;;;;;;;;;6242751;23;20511;-80
2023/08/09 03:55:09;;;;;;;9.63;4.15;;;;;;;;;;6244578;22;20044;-79
2023/08/09 03:57:53;;;;;;;9.32;4.47;;;;;;;;;;6243102;23;20002;-79
2023/08/09 04:00:22;;;;;;;15.57;4.50;;;;;;;;;;6244552;22;20010;-79
2023/08/09 04:02:47;;;;;;;8.65;4.05;;;;;;;;;;6244489;22;20007;-80
2023/08/09 04:05:14;;;;;;;6.22;4.40;;;;;;;;;;6243136;23;20004;-79
2023/08/09 04:07:39;;;;;;;18.70;5.20;;;;;;;;;;6244549;22;20000;-80
2023/08/09 04:10:06;;;;;;;12.27;4.97;;;;;;;;;;6242811;23;20102;-80
2023/08/09 04:12:32;;;;;;;8.75;4.55;;;;;;;;;;6242951;23;20008;-80
2023/08/09 04:14:57;;;;;;;9.20;4.53;;;;;;;;;;6242955;23;20004;-79
2023/08/09 04:17:22;;;;;;;7.93;4.40;;;;;;;;;;6243211;23;20007;-80
2023/08/09 04:19:48;;;;;;;8.95;4.53;;;;;;;;;;6217481;23;20012;-80
2023/08/09 04:22:13;;;;;;;6.22;3.95;;;;;;;;;;6243913;22;20005;-79
2023/08/09 04:24:39;;;;;;;9.07;4.15;;;;;;;;;;6217875;23;20062;-79
2023/08/09 04:27:05;;;;;;;11.40;4.28;;;;;;;;;;6242714;23;20062;-79
2023/08/09 04:29:30;;;;;;;10.98;4.22;;;;;;;;;;6217562;23;20027;-80
2023/08/09 04:31:56;;;;;;;9.05;3.90;;;;;;;;;;6217648;23;20075;-80
2023/08/09 04:34:23;;;;;;;14.50;4.35;;;;;;;;;;6243090;23;20004;-79
2023/08/09 04:36:52;;;;;;;9.60;4.03;;;;;;;;;;6244168;22;20058;-79
2023/08/09 04:39:18;;;;;;;12.02;4.53;;;;;;;;;;6242831;23;20087;-79
2023/08/09 04:41:43;;;;;;;7.97;3.75;;;;;;;;;;6192434;23;20355;-79
2023/08/09 04:44:09;;;;;;;10.57;4.18;;;;;;;;;;6217838;23;20004;-79
2023/08/09 04:46:35;;;;;;;11.63;4.03;;;;;;;;;;6242770;23;20066;-78
2023/08/09 04:49:00;;;;;;;14.90;5.07;;;;;;;;;;6242738;23;20087;-79
2023/08/09 04:51:26;;;;;;;15.98;4.70;;;;;;;;;;6217056;23;20071;-79
2023/08/09 04:53:52;;;;;;;10.02;4.10;;;;;;;;;;6242982;23;20004;-79
2023/08/09 04:56:17;;;;;;;16.73;3.97;;;;;;;;;;6217501;23;20449;-79
2023/08/09 04:58:43;;;;;;;8.85;4.30;;;;;;;;;;6242490;23;20342;-79
2023/08/09 05:01:08;;;;;;;8.48;4.20;;;;;;;;;;6242580;23;20439;-79
2023/08/09 05:03:33;;;;;;;9.73;3.97;;;;;;;;;;6242793;23;20010;-79
2023/08/09 05:06:01;;;;;;;3.95;3.13;;;;;;;;;;6244035;22;20001;-79
2023/08/09 05:08:27;;;;;;;7.15;3.60;;;;;;;;;;6243213;23;20355;-79
2023/08/09 05:10:52;;;;;;;6.30;3.38;;;;;;;;;;6243084;23;20004;-79
2023/08/09 05:13:17;;;;;;;5.40;3.15;;;;;;;;;;6243542;23;20035;-79
2023/08/09 05:15:43;;;;;;;4.72;2.90;;;;;;;;;;6219265;23;20348;-79
2023/08/09 05:18:08;;;;;;;4.13;2.20;;;;;;;;;;6243724;23;20100;-78
2023/08/09 05:20:34;;;;;;;7.80;2.67;;;;;;;;;;6218822;23;20000;-79
2023/08/09 05:22:59;;;;;;;6.35;2.55;;;;;;;;;;6219429;23;20011;-79
2023/08/09 05:25:25;;;;;;;4.95;2.47;;;;;;;;;;6244281;23;20039;-79
2023/08/09 05:27:50;;;;;;;5.60;3.17;;;;;;;;;;6244462;23;20004;-78
2023/08/09 05:30:16;;;;;;;4.93;2.92;;;;;;;;;;6244485;23;20442;-80
2023/08/09 05:32:41;;;;;;;5.05;3.03;;;;;;;;;;6243989;23;20000;-79
2023/08/09 05:35:07;;;;;;;3.45;2.60;;;;;;;;;;6194190;23;20008;-79
2023/08/09 05:37:33;;;;;;;4.68;2.13;;;;;;;;;;6219002;23;20000;-80
2023/08/09 05:39:58;;;;;;;4.15;2.08;;;;;;;;;;6219487;23;20043;-79
2023/08/09 05:42:23;;;;;;;5.93;2.05;;;;;;;;;;6244243;23;20321;-81
2023/08/09 05:44:49;;;;;;;5.15;2.42;;;;;;;;;;6218945;23;20023;-80
2023/08/09 05:47:14;;;;;;;7.20;1.90;;;;;;;;;;6246043;22;20008;-80
2023/08/09 05:49:40;;;;;;;3.40;1.83;;;;;;;;;;6219574;23;20339;-80
2023/08/09 05:52:05;;;;;;;2.10;1.50;;;;;;;;;;6244169;23;20004;-80
2023/08/09 05:54:31;;;;;;;2.28;1.67;;;;;;;;;;6218824;23;20046;-81
2023/08/09 05:56:56;;;;;;;5.32;1.85;;;;;;;;;;6219416;23;20015;-79
2023/08/09 05:59:22;;;;;;;4.35;1.80;;;;;;;;;;6218511;23;20504;-81
2023/08/09 06:01:49;;;;;;;3.42;1.70;;;;;;;;;;6244144;23;20511;-80
2023/08/09 06:04:15;;;;;;;3.58;2.30;;;;;;;;;;6219118;23;20075;-81
2023/08/09 06:06:40;;;;;;;1.63;1.52;;;;;;;;;;6244004;23;20444;-80
2023/08/09 06:09:06;;;;;;;4.32;1.60;;;;;;;;;;6218758;23;20000;-81
2023/08/09 06:11:32;;;;;;;2.03;1.70;;;;;;;;;;6244292;23;20386;-80
2023/08/09 06:13:59;;;;;;;3.08;1.60;;;;;;;;;;6193883;23;20424;-81
2023/08/09 06:16:24;;;;;;;3.70;1.55;;;;;;;;;;6242927;23;20420;-80
2023/08/09 06:18:50;;;;;;;2.80;1.70;;;;;;;;;;6218790;23;20043;-81
2023/08/09 06:21:15;;;;;;;2.78;1.80;;;;;;;;;;6244991;23;20035;-78
2023/08/09 06:23:40;;;;;;;4.13;1.88;;;;;;;;;;6194573;23;20011;-78
2023/08/09 06:26:06;;;;;;;4.38;1.80;;;;;;;;;;6218876;23;20011;-80
2023/08/09 06:28:31;;;;;;;4.30;1.98;;;;;;;;;;6218658;23;20008;-79
2023/08/09 06:30:57;;;;;;;3.38;1.80;;;;;;;;;;6244885;22;20476;-78
2023/08/09 06:33:22;;;;;;;3.20;1.83;;;;;;;;;;6245599;23;20435;-78
2023/08/09 06:35:48;;;;;;;6.35;1.98;;;;;;;;;;6243998;23;20362;-79
2023/08/09 06:38:13;;;;;;;4.65;2.28;;;;;;;;;;6245640;22;20008;-79
2023/08/09 06:40:39;;;;;;;5.40;2.42;;;;;;;;;;6243692;23;20004;-80
2023/08/09 06:43:05;;;;;;;7.13;2.00;;;;;;;;;;6218727;23;20347;-79
2023/08/09 06:45:30;;;;;;;17.48;2.78;;;;;;;;;;6243598;23;20446;-79
2023/08/09 06:47:56;;;;;;;5.70;2.15;;;;;;;;;;6245079;22;20489;-79
2023/08/09 06:50:23;;;;;;;4.13;2.15;;;;;;;;;;6243790;23;20398;-79
2023/08/09 06:52:49;;;;;;;14.07;2.75;;;;;;;;;;6244015;23;20028;-79
2023/08/09 06:55:14;;;;;;;4.45;2.60;;;;;;;;;;6219141;23;20011;-80
2023/08/09 06:57:39;;;;;;;7.43;2.70;;;;;;;;;;6219767;23;20523;-79
2023/08/09 07:00:05;;;;;;;13.23;2.97;;;;;;;;;;6243980;23;20004;-80
2023/08/09 07:02:33;;;;;;;3.28;2.50;;;;;;;;;;6244126;23;20036;-79
2023/08/09 07:05:00;;;;;;;9.52;2.58;;;;;;;;;;6219004;23;20427;-80
2023/08/09 07:07:26;;;;;;;6.90;2.30;;;;;;;;;;6244122;23;20095;-79
2023/08/09 07:09:52;;;;;;;4.85;2.33;;;;;;;;;;6245039;22;20058;-78
2023/08/09 07:12:19;;;;;;;4.53;2.60;;;;;;;;;;6243689;23;20011;-79
2023/08/09 07:14:46;;;;;;;3.78;2.30;;;;;;;;;;6243518;23;20448;-80
2023/08/09 07:17:11;;;;;;;3.60;2.38;;;;;;;;;;6243882;23;20000;-79
2023/08/09 07:19:36;;;;;;;3.55;2.65;;;;;;;;;;6217897;23;20142;-80
2023/08/09 07:22:02;;;;;;;4.50;2.53;;;;;;;;;;6243769;23;20000;-79
2023/08/09 07:24:27;;;;;;;3.63;2.40;;;;;;;;;;6218229;23;20012;-80
2023/08/09 07:26:53;;;;;;;5.47;2.30;;;;;;;;;;6243870;23;20485;-80
2023/08/09 07:29:18;;;;;;;14.70;9.10;;;;;;;;;;6243572;23;20044;-80
2023/08/09 07:31:44;;;;;;;3.85;2.97;;;;;;;;;;6218281;23;20435;-80
2023/08/09 07:34:09;;;;;;;2.80;2.50;;;;;;;;;;6244597;22;20000;-79
2023/08/09 07:36:34;;;;;;;5.22;2.30;;;;;;;;;;6243446;23;20004;-80
2023/08/09 07:39:00;;;;;;;3.53;2.40;;;;;;;;;;6243255;23;20355;-80
2023/08/09 07:41:26;;;;;;;4.72;2.80;;;;;;;;;;6218138;23;20027;-80
2023/08/09 07:43:51;;;;;;;5.70;2.78;;;;;;;;;;6218372;23;20038;-79
2023/08/09 07:46:17;;;;;;;7.75;2.92;;;;;;;;;;6217755;23;20000;-79
2023/08/09 07:48:42;;;;;;;6.25;2.90;;;;;;;;;;6242684;23;20008;-79
2023/08/09 07:51:11;;;;;;;5.53;2.70;;;;;;;;;;6216438;23;20063;-79
2023/08/09 07:53:38;;;;;;;4.53;2.47;;;;;;;;;;6241727;23;20088;-79
2023/08/09 07:56:04;;;;;;;5.55;2.80;;;;;;;;;;6241448;23;20011;-79
2023/08/09 07:58:29;;;;;;;3.60;2.80;;;;;;;;;;6242222;23;20353;-80
2023/08/09 08:00:54;;;;;;;4.18;2.50;;;;;;;;;;6215799;23;20404;-80
2023/08/09 08:03:20;;;;;;;9.88;2.70;;;;;;;;;;6243601;23;19996;-79
2023/08/09 08:05:45;;;;;;;7.45;3.00;;;;;;;;;;6242977;23;20005;-79
2023/08/09 08:08:11;;;;;;;4.43;2.65;;;;;;;;;;6242312;23;20000;-79
2023/08/09 08:10:37;;;;;;;10.57;2.90;;;;;;;;;;6244208;22;20000;-82
2023/08/09 08:13:02;;;;;;;3.33;2.65;;;;;;;;;;6192628;23;20011;-79
2023/08/09 08:15:28;;;;;;;4.63;2.50;;;;;;;;;;6217739;23;20416;-79
2023/08/09 08:17:54;;;;;;;3.47;2.50;;;;;;;;;;6243155;23;20000;-80
2023/08/09 08:20:20;;;;;;;4.18;2.67;;;;;;;;;;6244569;23;20343;-79
2023/08/09 08:22:46;;;;;;;6.50;2.72;;;;;;;;;;6242828;23;19999;-81
2023/08/09 08:25:12;;;;;;;10.35;2.53;;;;;;;;;;6192755;23;20150;-81
2023/08/09 08:27:39;;;;;;;6.20;2.60;;;;;;;;;;6217328;23;20062;-80
2023/08/09 08:30:05;;;;;;;6.05;2.42;;;;;;;;;;6192795;23;19996;-80
2023/08/09 08:32:31;;;;;;;2.88;2.30;;;;;;;;;;6192689;23;20008;-80
2023/08/09 08:34:56;;;;;;;5.82;2.60;;;;;;;;;;6192579;23;20394;-80
2023/08/09 08:37:25;;;;;;;5.70;2.90;;;;;;;;;;6218094;23;20061;-80
2023/08/09 08:39:50;;;;;;;7.53;2.90;;;;;;;;;;6244182;23;20394;-81
2023/08/09 08:42:17;;;;;;;5.40;2.97;;;;;;;;;;6245664;23;20015;-80
2023/08/09 08:44:43;;;;;;;3.83;2.70;;;;;;;;;;6193103;23;20000;-80
2023/08/09 08:47:08;;;;;;;5.43;2.75;;;;;;;;;;6192547;23;20015;-80
2023/08/09 08:49:34;;;;;;;3.97;3.38;;;;;;;;;;6194167;23;20007;-80
2023/08/09 08:51:59;;;;;;;5.20;2.90;;;;;;;;;;6246386;23;20000;-79
2023/08/09 08:54:25;;;;;;;7.60;3.50;;;;;;;;;;6219384;23;20074;-78
2023/08/09 08:56:51;;;;;;;3.63;3.20;;;;;;;;;;6219225;23;20346;-79
2023/08/09 08:59:17;;;;;;;5.07;3.33;;;;;;;;;;6195082;23;20418;-80
2023/08/09 09:01:42;;;;;;;6.28;2.85;;;;;;;;;;6246292;23;20005;-79
2023/08/09 09:04:09;;;;;;;7.47;2.78;;;;;;;;;;6219706;23;20422;-80
2023/08/09 09:06:34;;;;;;;4.03;2.55;;;;;;;;;;6194929;23;20346;-80
2023/08/09 09:09:00;;;;;;;5.07;3.15;;;;;;;;;;6194121;23;20039;-80
2023/08/09 09:11:25;;;;;;;4.13;2.92;;;;;;;;;;6219096;23;20039;-79
2023/08/09 09:13:51;;;;;;;4.93;3.03;;;;;;;;;;6219401;23;20008;-80
2023/08/09 09:16:18;;;;;;;6.10;4.30;;;;;;;;;;6245933;23;20031;-81
2023/08/09 09:18:48;;;;;;;7.45;4.32;;;;;;;;;;6197239;23;20008;-77
2023/08/09 09:21:18;;;;;;;5.32;2.92;;;;;;;;;;6199689;23;20004;-79
2023/08/09 09:23:44;;;;;;;3.50;2.80;;;;;;;;;;6198689;23;20055;-80
2023/08/09 09:26:11;;;;;;;6.78;3.03;;;;;;;;;;6213213;23;20004;-80
2023/08/09 09:28:50;;;;;;;3.58;2.63;;;;;;;;;;6217555;23;20028;-80
2023/08/09 09:31:18;;;;;;;5.68;2.60;;;;;;;;;;6242772;23;20447;-82
2023/08/09 09:33:45;;;;;;;5.72;2.53;;;;;;;;;;6218006;23;20004;-81
2023/08/09 09:36:11;;;;;;;4.57;2.42;;;;;;;;;;6217347;23;20000;-81
2023/08/09 09:38:36;;;;;;;9.05;5.93;;;;;;;;;;6242665;23;20003;-81
2023/08/09 09:41:02;;;;;;;4.25;3.35;;;;;;;;;;6244100;22;20070;-80
2023/08/09 09:43:31;;;;;;;4.57;2.10;;;;;;;;;;6242824;23;20019;-80
2023/08/09 09:45:56;;;;;;;2.58;2.30;;;;;;;;;;6242658;23;20004;-81
2023/08/09 09:48:22;;;;;;;2.42;1.90;;;;;;;;;;6244138;23;20065;-79
2023/08/09 09:50:48;;;;;;;1.73;1.63;;;;;;;;;;6242563;23;20061;-79
2023/08/09 09:53:15;;;;;;;2.05;1.85;;;;;;;;;;6217716;23;20015;-81
2023/08/09 09:55:40;;;;;;;4.28;1.73;;;;;;;;;;6244119;22;20020;-81
2023/08/09 09:58:06;;;;;;;2.75;1.70;;;;;;;;;;6217177;23;20011;-81
2023/08/09 10:00:32;;;;;;;5.15;1.50;;;;;;;;;;6242744;23;20000;-80
2023/08/09 10:03:00;;;;;;;2.13;1.92;;;;;;;;;;6242514;23;20008;-81
2023/08/09 10:05:35;;;;;;;3.05;2.05;;;;;;;;;;6242274;23;20079;-80
2023/08/09 10:08:00;;;;;;;6.28;2.10;;;;;;;;;;6242584;23;20027;-81
2023/08/09 10:10:26;;;;;;;4.40;2.08;;;;;;;;;;6242962;23;20565;-80
2023/08/09 10:12:54;;;;;;;2.35;1.80;;;;;;;;;;6218557;23;20222;-80
2023/08/09 10:15:23;;;;;;;3.05;2.10;;;;;;;;;;6242312;23;20003;-81
2023/08/09 10:17:51;;;;;;;3.00;2.28;;;;;;;;;;6244051;22;20008;-81
2023/08/09 10:20:16;;;;;;;3.00;2.33;;;;;;;;;;6217467;23;20954;-81
2023/08/09 10:22:43;;;;;;;3.03;2.60;;;;;;;;;;6242195;23;20000;-80
2023/08/09 10:28:03;;;;;;;6.85;3.45;;;;;;;;;;5091760;27;20412;-81
2023/08/09 10:30:29;;;;;;;5.88;3.00;;;;;;;;;;5058769;28;20157;-80
2023/08/09 10:32:56;;;;;;;3.03;2.80;;;;;;;;;;5089729;28;20475;-79
2023/08/09 10:35:44;;;;;;;3.33;2.80;;;;;;;;;;5074303;28;20035;-80
2023/08/09 10:38:12;;;;;;;3.45;2.90;;;;;;;;;;5091406;28;20036;-80
2023/08/09 10:40:42;;;;;;;4.40;2.60;;;;;;;;;;5057366;28;20020;-79
2023/08/09 10:43:16;;;;;;;4.88;3.63;;;;;;;;;;5057291;28;20119;-80
2023/08/09 10:45:42;;;;;;;4.03;3.42;;;;;;;;;;5090817;28;20033;-80
2023/08/09 10:48:27;;;;;;;5.85;2.70;;;;;;;;;;5073674;28;20102;-81
2023/08/09 10:51:16;;;;;;;3.08;2.75;;;;;;;;;;5074632;28;20024;-79
2023/08/09 10:53:57;;;;;;;6.50;3.97;;;;;;;;;;5081599;28;20419;-79
2023/08/09 10:56:41;;;;;;;5.82;2.78;;;;;;;;;;5090667;28;20083;-81
2023/08/09 10:59:14;;;;;;;5.50;3.15;;;;;;;;;;5101759;28;20016;-80
2023/08/09 11:01:43;;;;;;;4.28;2.90;;;;;;;;;;5107379;28;20081;-78
2023/08/09 11:04:17;;;;;;;2.70;2.50;;;;;;;;;;5071715;28;20059;-80
2023/08/09 11:06:44;;;;;;;5.30;3.00;;;;;;;;;;5094349;28;20039;-79
2023/08/09 11:09:21;;;;;;;4.38;3.00;;;;;;;;;;5089210;28;20095;-79
2023/08/09 11:11:47;;;;;;;5.60;3.00;;;;;;;;;;5072351;28;20028;-79
2023/08/09 11:14:14;;;;;;;4.57;2.88;;;;;;;;;;5088144;28;20024;-80
2023/08/09 11:16:40;;;;;;;4.60;3.38;;;;;;;;;;5085060;28;20028;-78
2023/08/09 11:19:09;;;;;;;4.15;2.80;;;;;;;;;;5078690;28;20036;-79
2023/08/09 11:21:41;;;;;;;4.15;2.80;;;;;;;;;;5104967;28;20038;-79
2023/08/09 11:24:07;;;;;;;6.35;3.20;;;;;;;;;;5101308;28;20397;-80
2023/08/09 11:26:35;;;;;;;5.00;2.47;;;;;;;;;;5084478;28;20118;-80
2023/08/09 11:29:01;;;;;;;10.82;3.00;;;;;;;;;;5104033;28;20024;-79
2023/08/09 11:31:26;;;;;;;5.78;3.17;;;;;;;;;;5087309;28;20016;-80
2023/08/09 11:34:01;;;;;;;3.72;2.80;;;;;;;;;;5098734;28;20026;-80
2023/08/09 11:36:30;;;;;;;7.93;5.38;;;;;;;;;;5093288;28;20024;-80
2023/08/09 11:38:59;;;;;;;4.07;2.93;;;;;;;;;;5042496;28;20033;-80
2023/08/09 11:41:25;;;;;;;14.40;3.55;;;;;;;;;;5059967;28;20279;-80
2023/08/09 11:43:51;;;;;;;3.70;2.85;;;;;;;;;;5076347;28;20051;-81
2023/08/09 11:46:23;;;;;;;4.53;2.80;;;;;;;;;;5059955;28;20113;-80
2023/08/09 11:48:50;;;;;;;5.00;3.05;;;;;;;;;;5064612;28;20024;-81
2023/08/09 11:51:18;;;;;;;3.72;2.72;;;;;;;;;;5061214;28;20058;-80
2023/08/09 11:53:44;;;;;;;11.60;3.05;;;;;;;;;;5044939;28;20385;-80
2023/08/09 11:56:16;;;;;;;6.88;3.22;;;;;;;;;;5077252;28;20055;-81
2023/08/09 11:58:43;;;;;;;6.45;3.20;;;;;;;;;;5075724;28;20032;-81
2023/08/09 12:01:16;;;;;;;7.20;2.97;;;;;;;;;;5059198;28;20382;-81
2023/08/09 12:03:46;;;;;;;4.07;3.03;;;;;;;;;;5075356;28;20442;-81
2023/08/09 12:06:12;;;;;;;4.65;2.55;;;;;;;;;;5042452;28;20445;-80
2023/08/09 12:08:37;;;;;;;3.25;2.65;;;;;;;;;;5059237;28;20043;-81
2023/08/09 12:11:03;;;;;;;8.27;2.70;;;;;;;;;;5075378;28;20029;-81
2023/08/09 12:13:29;;;;;;;4.18;2.70;;;;;;;;;;5075948;28;20071;-81
2023/08/09 12:15:54;;;;;;;5.82;2.80;;;;;;;;;;5042061;28;20032;-80
2023/08/09 12:18:20;;;;;;;3.80;3.10;;;;;;;;;;5042567;28;20077;-81
2023/08/09 12:20:46;;;;;;;4.20;2.80;;;;;;;;;;5076507;28;20070;-81
2023/08/09 12:23:11;;;;;;;3.70;2.85;;;;;;;;;;5059869;28;20093;-81
2023/08/09 12:25:37;;;;;;;6.38;3.55;;;;;;;;;;5076552;28;20441;-81
2023/08/09 12:28:03;;;;;;;4.00;2.95;;;;;;;;;;5075304;28;20028;-81
2023/08/09 12:30:29;;;;;;;4.90;2.88;;;;;;;;;;5058428;28;20377;-81
2023/08/09 12:32:55;;;;;;;5.05;2.72;;;;;;;;;;5075016;28;20032;-81
2023/08/09 12:35:20;;;;;;;3.25;2.60;;;;;;;;;;5074726;28;20472;-80
2023/08/09 12:37:46;;;;;;;3.92;2.80;;;;;;;;;;5074789;28;20024;-81
2023/08/09 12:40:12;;;;;;;5.43;2.83;;;;;;;;;;5075016;28;20025;-81
2023/08/09 12:42:37;;;;;;;4.03;3.08;;;;;;;;;;5058240;28;20055;-81
2023/08/09 12:45:05;;;;;;;5.05;3.08;;;;;;;;;;5074662;28;20032;-81
2023/08/09 12:47:30;;;;;;;4.18;3.05;;;;;;;;;;5058391;28;20449;-81
2023/08/09 12:49:56;;;;;;;8.35;3.20;;;;;;;;;;5057384;28;20090;-81
2023/08/09 12:52:22;;;;;;;4.60;3.33;;;;;;;;;;5074455;28;20020;-81
2023/08/09 12:54:48;;;;;;;6.38;2.83;;;;;;;;;;5080033;28;20025;-81
2023/08/09 12:57:14;;;;;;;3.75;3.05;;;;;;;;;;5058106;28;20455;-81
2023/08/09 12:59:40;;;;;;;4.75;2.90;;;;;;;;;;5041325;28;20120;-81
2023/08/09 13:02:07;;;;;;;3.40;3.10;;;;;;;;;;5075855;28;20024;-81
2023/08/09 13:04:32;;;;;;;4.85;3.00;;;;;;;;;;5058316;28;20111;-80
2023/08/09 13:06:58;;;;;;;8.05;3.00;;;;;;;;;;5075185;28;20442;-81
2023/08/09 13:09:24;;;;;;;6.65;3.22;;;;;;;;;;5057677;28;20103;-82
2023/08/09 13:11:49;;;;;;;7.82;3.45;;;;;;;;;;5074428;28;20062;-80
2023/08/09 13:14:15;;;;;;;8.75;3.28;;;;;;;;;;5057777;28;20036;-81
2023/08/09 13:16:40;;;;;;;3.22;2.80;;;;;;;;;;5073759;28;20457;-81
2023/08/09 13:19:06;;;;;;;4.35;3.10;;;;;;;;;;5074223;28;20024;-81
2023/08/09 13:21:31;;;;;;;5.50;3.22;;;;;;;;;;5040884;28;20142;-81
2023/08/09 13:23:57;;;;;;;7.20;3.22;;;;;;;;;;5040743;28;20029;-81
2023/08/09 13:26:23;;;;;;;6.28;3.40;;;;;;;;;;5057170;28;20048;-82
2023/08/09 13:28:50;;;;;;;8.18;3.35;;;;;;;;;;5057225;28;20410;-80
2023/08/09 13:31:15;;;;;;;5.45;3.45;;;;;;;;;;5073358;28;20143;-81
2023/08/09 13:33:41;;;;;;;8.00;3.92;;;;;;;;;;5073884;28;20119;-81
2023/08/09 13:36:06;;;;;;;6.80;3.33;;;;;;;;;;5074883;28;20035;-80
2023/08/09 13:38:33;;;;;;;6.60;3.70;;;;;;;;;;5056901;28;20037;-80
2023/08/09 13:40:59;;;;;;;8.07;3.83;;;;;;;;;;5057048;28;20028;-81
2023/08/09 13:43:25;;;;;;;8.70;4.00;;;;;;;;;;5073650;28;20127;-81
2023/08/09 13:45:51;;;;;;;5.50;3.58;;;;;;;;;;5073320;28;20083;-81
2023/08/09 13:48:16;;;;;;;9.45;3.92;;;;;;;;;;5073445;28;20174;-81
2023/08/09 13:50:45;;;;;;;5.45;3.45;;;;;;;;;;5073560;28;20075;-81
2023/08/09 13:53:10;;;;;;;5.28;3.40;;;;;;;;;;5073346;28;20044;-81
2023/08/09 13:55:36;;;;;;;6.25;3.42;;;;;;;;;;5073394;28;20040;-81
2023/08/09 13:58:01;;;;;;;5.35;3.60;;;;;;;;;;5073752;28;20024;-81
2023/08/09 14:00:29;;;;;;;5.97;4.07;;;;;;;;;;5072881;28;20032;-81
2023/08/09 14:02:54;;;;;;;4.85;3.63;;;;;;;;;;5073035;28;20081;-81
2023/08/09 14:05:20;;;;;;;6.38;3.78;;;;;;;;;;5072730;28;20070;-81
2023/08/09 14:07:46;;;;;;;5.70;4.03;;;;;;;;;;5055959;28;20499;-81
2023/08/09 14:10:11;;;;;;;5.75;4.05;;;;;;;;;;5056382;28;20076;-80
2023/08/09 14:12:36;;;;;;;5.78;3.92;;;;;;;;;;5073816;28;20115;-81
2023/08/09 14:15:03;;;;;;;4.72;4.10;;;;;;;;;;5073776;28;20100;-81
2023/08/09 14:17:28;;;;;;;6.38;4.15;;;;;;;;;;5074143;28;20037;-82
2023/08/09 14:19:54;;;;;;;5.10;3.70;;;;;;;;;;5072472;28;20353;-81
2023/08/09 14:22:19;;;;;;;8.70;4.00;;;;;;;;;;5072785;28;20124;-80
2023/08/09 14:24:45;;;;;;;5.68;3.67;;;;;;;;;;5072483;28;20446;-82
2023/08/09 14:27:10;;;;;;;6.70;4.15;;;;;;;;;;5072121;28;20056;-79
2023/08/09 14:29:42;;;;;;;9.32;4.03;;;;;;;;;;5073351;28;20032;-81
2023/08/09 14:32:09;;;;;;;9.50;4.60;;;;;;;;;;5072425;28;20115;-87
2023/08/09 14:34:36;;;;;;;5.30;4.00;;;;;;;;;;5072812;28;20040;-85
2023/08/09 14:37:01;;;;;;;10.68;5.28;;;;;;;;;;5072204;28;20048;-84
2023/08/09 14:39:27;;;;;;;13.43;5.30;;;;;;;;;;5056056;28;20082;-84